Time;durP1;ratioP1;P1;durP2;ratioP2;P2;SDS_P1;SDS_P2;PMS_P1;PMS_P2;Temp;Humidity;BMP_temperature;BMP_pressure;BME280_temperature;BME280_humidity;BME280_pressure;Samples;Min_cycle;Max_cycle;Signal;HPM_P1;HPM_P2
2022/06/27 00:01:10;;;;;;;5.70;4.20;;;17.10;99.90;;;;;;4787062;29;20059;-70
2022/06/27 00:03:36;;;;;;;4.40;4.00;;;17.10;99.90;;;;;;4791860;29;20431;-70
2022/06/27 00:06:02;;;;;;;4.65;3.95;;;17.10;99.90;;;;;;4780625;30;20131;-71
2022/06/27 00:08:27;;;;;;;4.88;3.60;;;17.10;99.90;;;;;;4772332;30;20048;-70
2022/06/27 00:10:53;;;;;;;4.20;3.60;;;17.10;99.90;;;;;;4786544;29;20043;-70
2022/06/27 00:13:19;;;;;;;4.45;3.83;;;17.10;99.90;;;;;;4780676;29;20108;-71
2022/06/27 00:15:44;;;;;;;5.85;3.88;;;17.00;99.90;;;;;;4785161;29;20055;-70
2022/06/27 00:18:10;;;;;;;4.65;4.05;;;17.00;99.90;;;;;;4793920;29;20039;-70
2022/06/27 00:20:36;;;;;;;4.40;4.00;;;17.00;99.90;;;;;;4779517;30;20090;-71
2022/06/27 00:23:02;;;;;;;6.13;4.07;;;17.00;99.90;;;;;;4787797;29;20051;-70
2022/06/27 00:25:27;;;;;;;5.45;4.95;;;17.00;99.90;;;;;;4785726;29;20076;-71
2022/06/27 00:27:53;;;;;;;6.63;4.20;;;16.90;99.90;;;;;;4778620;29;20494;-72
2022/06/27 00:30:19;;;;;;;6.43;5.20;;;17.00;99.90;;;;;;4782840;30;20127;-71
2022/06/27 00:32:45;;;;;;;4.88;4.35;;;17.00;99.90;;;;;;4779615;29;20184;-72
2022/06/27 00:35:11;;;;;;;5.10;4.60;;;17.00;99.90;;;;;;4779190;30;20568;-70
2022/06/27 00:37:36;;;;;;;4.97;4.53;;;17.00;99.90;;;;;;4776512;29;20055;-70
2022/06/27 00:40:03;;;;;;;5.32;4.85;;;16.90;99.90;;;;;;4785244;29;20078;-72
2022/06/27 00:42:29;;;;;;;5.88;4.65;;;16.90;99.90;;;;;;4786326;29;20062;-72
2022/06/27 00:44:55;;;;;;;6.03;4.80;;;16.80;99.90;;;;;;4788024;29;20059;-71
2022/06/27 00:47:20;;;;;;;5.05;4.55;;;16.80;99.90;;;;;;4792274;29;20039;-72
2022/06/27 00:49:46;;;;;;;5.57;4.88;;;16.70;99.90;;;;;;4779622;30;20039;-70
2022/06/27 00:52:13;;;;;;;6.40;4.78;;;16.80;99.90;;;;;;4780989;30;20050;-70
2022/06/27 00:54:41;;;;;;;5.38;4.80;;;16.70;99.90;;;;;;4793869;29;20131;-71
2022/06/27 00:57:07;;;;;;;5.60;5.10;;;16.70;99.90;;;;;;4776231;30;20486;-70
2022/06/27 00:59:34;;;;;;;6.95;5.57;;;16.70;99.90;;;;;;4775857;29;20047;-71
2022/06/27 01:02:01;;;;;;;5.65;5.20;;;16.70;99.90;;;;;;4784705;29;20059;-71
2022/06/27 01:04:28;;;;;;;7.68;5.10;;;16.70;99.90;;;;;;4785421;29;20150;-70
2022/06/27 01:06:53;;;;;;;6.00;5.38;;;16.80;99.90;;;;;;4784809;29;20146;-71
2022/06/27 01:09:20;;;;;;;6.32;5.20;;;16.80;99.90;;;;;;4777966;29;20122;-71
2022/06/27 01:11:46;;;;;;;6.75;6.00;;;16.80;99.90;;;;;;4776828;30;20055;-71
2022/06/27 01:14:12;;;;;;;6.95;6.22;;;16.80;99.90;;;;;;4778987;30;20062;-70
2022/06/27 01:16:39;;;;;;;7.03;6.38;;;16.70;99.90;;;;;;4786854;29;20118;-71
2022/06/27 01:19:10;;;;;;;6.78;6.18;;;16.70;99.90;;;;;;4785037;29;20047;-70
2022/06/27 01:21:43;;;;;;;6.80;6.10;;;16.70;99.90;;;;;;4783076;29;20058;-71
2022/06/27 01:24:10;;;;;;;9.27;6.72;;;16.70;99.90;;;;;;4777348;30;20509;-70
2022/06/27 01:26:36;;;;;;;7.43;6.72;;;16.70;99.90;;;;;;4786539;29;20039;-70
2022/06/27 01:29:02;;;;;;;8.65;6.38;;;16.70;99.90;;;;;;4800419;29;20112;-71
2022/06/27 01:31:28;;;;;;;7.28;6.53;;;16.70;99.90;;;;;;4785549;29;20086;-70
2022/06/27 01:33:54;;;;;;;6.57;5.88;;;16.70;99.90;;;;;;4778745;30;20146;-71
2022/06/27 01:39:04;;;;;;;6.97;6.10;;;16.70;99.90;;;;;;4775458;29;20493;-70
2022/06/27 01:41:30;;;;;;;6.90;6.10;;;16.60;99.90;;;;;;4785677;29;20124;-70
2022/06/27 01:43:56;;;;;;;6.28;5.70;;;16.70;99.90;;;;;;4779526;29;20473;-71
2022/06/27 01:46:21;;;;;;;6.38;5.70;;;16.70;99.90;;;;;;4790631;29;20130;-71
2022/06/27 01:48:47;;;;;;;7.07;5.95;;;16.70;99.90;;;;;;4781824;30;20073;-71
2022/06/27 01:51:13;;;;;;;7.53;6.53;;;16.70;99.90;;;;;;4783487;30;20047;-69
2022/06/27 01:53:38;;;;;;;6.95;6.28;;;16.80;99.90;;;;;;4782139;29;20093;-70
2022/06/27 01:56:05;;;;;;;7.35;6.60;;;16.80;99.90;;;;;;4785340;30;20051;-71
2022/06/27 01:58:32;;;;;;;7.82;6.57;;;16.80;99.90;;;;;;4778854;29;20430;-69
2022/06/27 02:00:58;;;;;;;6.95;6.25;;;16.80;99.90;;;;;;4783245;29;20110;-69
2022/06/27 02:03:23;;;;;;;6.65;5.75;;;16.80;99.90;;;;;;4777007;30;20056;-71
2022/06/27 02:05:52;;;;;;;7.22;6.47;;;16.70;99.90;;;;;;4779018;30;20043;-70
2022/06/27 02:08:21;;;;;;;6.93;6.22;;;16.70;99.90;;;;;;4785344;29;20047;-69
2022/06/27 02:10:47;;;;;;;7.47;6.72;;;16.70;99.90;;;;;;4780706;30;20075;-71
2022/06/27 02:13:13;;;;;;;8.32;6.93;;;16.70;99.90;;;;;;4783279;30;20047;-70
2022/06/27 02:16:06;;;;;;;7.90;7.10;;;16.70;99.90;;;;;;4781763;30;20079;-69
2022/06/27 02:18:33;;;;;;;8.98;7.70;;;16.70;99.90;;;;;;4789147;29;20097;-72
2022/06/27 02:21:00;;;;;;;6.82;6.13;;;16.70;99.90;;;;;;4783395;30;20358;-71
2022/06/27 02:23:26;;;;;;;7.57;6.82;;;16.70;99.90;;;;;;4789062;29;20456;-70
2022/06/27 02:25:52;;;;;;;7.55;6.75;;;16.80;99.90;;;;;;4782288;30;20547;-69
2022/06/27 02:28:19;;;;;;;7.90;7.20;;;16.80;99.90;;;;;;4802560;29;20100;-70
2022/06/27 02:30:45;;;;;;;7.75;7.00;;;16.80;99.90;;;;;;4782294;30;20058;-71
2022/06/27 02:33:11;;;;;;;7.50;6.68;;;16.80;99.90;;;;;;4796894;29;20055;-71
2022/06/27 02:35:39;;;;;;;7.38;6.55;;;16.70;99.90;;;;;;4807518;29;20051;-69
2022/06/27 02:38:09;;;;;;;8.52;7.53;;;16.70;99.90;;;;;;4781993;29;20051;-70
2022/06/27 02:40:36;;;;;;;10.00;8.35;;;16.70;99.90;;;;;;4800975;29;20055;-70
2022/06/27 02:43:02;;;;;;;11.60;8.50;;;16.70;99.90;;;;;;4783842;29;20043;-69
2022/06/27 02:45:30;;;;;;;10.32;9.32;;;16.70;99.90;;;;;;4784737;29;20078;-70
2022/06/27 02:48:01;;;;;;;11.00;9.80;;;16.70;99.90;;;;;;4799379;29;20085;-69
2022/06/27 02:50:28;;;;;;;11.02;10.02;;;16.70;99.90;;;;;;4807158;29;20112;-70
2022/06/27 02:52:56;;;;;;;11.40;10.25;;;16.60;99.90;;;;;;4790997;29;20054;-71
2022/06/27 02:55:28;;;;;;;12.93;11.63;;;16.60;99.90;;;;;;4800001;29;20058;-71
2022/06/27 03:01:13;;;;;;;11.48;10.40;;;16.60;99.90;;;;;;4796149;29;20493;-71
2022/06/27 03:03:41;;;;;;;12.75;10.60;;;16.60;99.90;;;;;;4785957;29;20061;-70
2022/06/27 03:06:07;;;;;;;11.65;9.80;;;16.60;99.90;;;;;;4804451;29;20055;-71
2022/06/27 03:08:59;;;;;;;13.18;11.77;;;16.50;99.90;;;;;;4786144;29;20070;-70
2022/06/27 03:11:26;;;;;;;12.65;11.45;;;16.60;99.90;;;;;;4783239;29;20070;-70
2022/06/27 03:13:56;;;;;;;12.00;10.90;;;16.60;99.90;;;;;;4775017;29;20070;-70
2022/06/27 03:16:23;;;;;;;11.40;10.30;;;16.70;99.90;;;;;;4781158;30;20047;-70
2022/06/27 03:18:55;;;;;;;13.57;11.60;;;16.60;99.90;;;;;;4795313;29;20125;-70
2022/06/27 03:21:21;;;;;;;12.63;11.35;;;16.50;99.90;;;;;;4780825;29;20071;-69
2022/06/27 03:23:48;;;;;;;13.98;11.40;;;16.60;99.90;;;;;;4798616;29;20045;-70
2022/06/27 03:26:14;;;;;;;11.80;10.57;;;16.50;99.90;;;;;;4787561;29;20489;-70
2022/06/27 03:28:40;;;;;;;17.52;10.73;;;16.50;99.90;;;;;;4802128;29;20054;-72
2022/06/27 03:31:06;;;;;;;12.25;10.80;;;16.50;99.90;;;;;;4804872;29;20066;-70
2022/06/27 03:33:32;;;;;;;12.48;11.05;;;16.50;99.90;;;;;;4799156;29;20154;-70
2022/06/27 03:35:58;;;;;;;12.68;11.43;;;16.50;99.90;;;;;;4788722;29;20429;-70
2022/06/27 03:38:25;;;;;;;12.55;11.35;;;16.50;99.90;;;;;;4799683;29;20054;-70
2022/06/27 03:40:50;;;;;;;14.18;12.02;;;16.60;99.90;;;;;;4799129;29;20350;-71
2022/06/27 03:43:16;;;;;;;13.95;11.93;;;16.50;99.90;;;;;;4774831;29;20046;-69
2022/06/27 03:45:42;;;;;;;13.45;12.00;;;16.60;99.90;;;;;;4790389;29;20138;-69
2022/06/27 03:48:08;;;;;;;13.32;11.65;;;16.60;99.90;;;;;;4781740;29;20043;-70
2022/06/27 03:50:34;;;;;;;11.82;10.65;;;16.60;99.90;;;;;;4797943;29;20115;-70
2022/06/27 03:53:00;;;;;;;14.57;13.18;;;16.60;99.90;;;;;;4783135;29;20058;-69
2022/06/27 03:55:26;;;;;;;11.85;10.85;;;16.60;99.90;;;;;;4799889;29;20207;-72
2022/06/27 03:57:55;;;;;;;13.27;11.82;;;16.60;99.90;;;;;;4802652;29;20082;-71
2022/06/27 04:00:32;;;;;;;13.07;11.70;;;16.60;99.90;;;;;;4789685;29;20081;-71
2022/06/27 04:02:58;;;;;;;11.95;10.85;;;16.60;99.90;;;;;;4797850;29;20051;-70
2022/06/27 04:05:23;;;;;;;11.18;10.00;;;16.50;99.90;;;;;;4800105;29;20079;-71
2022/06/27 04:07:49;;;;;;;10.18;9.18;;;16.50;99.90;;;;;;4801742;29;20047;-70
2022/06/27 04:10:15;;;;;;;10.50;8.10;;;16.40;99.90;;;;;;4781243;29;20047;-72
2022/06/27 04:12:41;;;;;;;7.93;7.22;;;16.40;99.90;;;;;;4789611;29;20348;-70
2022/06/27 04:15:08;;;;;;;8.07;7.25;;;16.40;99.90;;;;;;4783278;29;20536;-72
2022/06/27 04:17:34;;;;;;;7.55;6.55;;;16.20;99.90;;;;;;4797921;29;20094;-70
2022/06/27 04:20:00;;;;;;;7.20;6.60;;;16.10;99.90;;;;;;4785436;29;20085;-70
2022/06/27 04:22:28;;;;;;;7.20;6.47;;;16.10;99.90;;;;;;4798474;29;20047;-70
2022/06/27 04:24:54;;;;;;;7.00;6.25;;;16.00;99.90;;;;;;4805909;29;20476;-71
2022/06/27 04:27:20;;;;;;;7.68;6.13;;;16.00;99.90;;;;;;4805046;29;20054;-70
2022/06/27 04:29:48;;;;;;;6.55;5.95;;;16.00;99.90;;;;;;4793590;29;20115;-71
2022/06/27 04:32:14;;;;;;;7.38;5.95;;;16.00;99.90;;;;;;4797205;29;20083;-71
2022/06/27 04:34:40;;;;;;;7.32;5.97;;;15.90;99.90;;;;;;4779998;29;20400;-70
2022/06/27 04:37:06;;;;;;;8.05;7.25;;;15.90;99.90;;;;;;4797735;29;20080;-70
2022/06/27 04:39:32;;;;;;;7.60;6.80;;;16.00;99.90;;;;;;4804790;29;20142;-69
2022/06/27 04:41:57;;;;;;;8.38;7.47;;;16.00;99.90;;;;;;4800491;29;20094;-70
2022/06/27 04:44:23;;;;;;;6.72;6.10;;;15.90;99.90;;;;;;4799334;29;20493;-69
2022/06/27 04:46:49;;;;;;;7.97;7.18;;;16.00;99.90;;;;;;4805390;29;20127;-70
2022/06/27 04:49:19;;;;;;;9.02;7.55;;;15.90;99.90;;;;;;4799075;29;20047;-70
2022/06/27 04:51:45;;;;;;;7.07;6.45;;;16.00;99.90;;;;;;4788689;29;20121;-70
2022/06/27 04:54:11;;;;;;;7.90;7.10;;;16.00;99.90;;;;;;4782563;29;20051;-69
2022/06/27 04:56:41;;;;;;;7.93;7.13;;;16.00;99.90;;;;;;4783940;29;20046;-69
2022/06/27 04:59:06;;;;;;;8.93;7.30;;;16.00;99.90;;;;;;4796481;29;20532;-70
2022/06/27 05:01:32;;;;;;;8.15;7.38;;;16.00;99.90;;;;;;4782569;29;20042;-69
2022/06/27 05:03:58;;;;;;;8.15;7.38;;;16.00;99.90;;;;;;4801377;29;20089;-70
2022/06/27 05:06:23;;;;;;;7.32;6.53;;;16.00;99.90;;;;;;4772517;29;20061;-71
2022/06/27 05:08:49;;;;;;;6.13;5.53;;;16.00;99.90;;;;;;4803331;29;20110;-70
2022/06/27 05:11:15;;;;;;;6.63;5.60;;;16.10;99.90;;;;;;4795809;29;20126;-71
2022/06/27 05:13:40;;;;;;;5.03;4.60;;;16.10;99.90;;;;;;4781084;29;20058;-70
2022/06/27 05:16:06;;;;;;;4.57;4.22;;;16.10;99.90;;;;;;4798051;29;20050;-69
2022/06/27 05:18:33;;;;;;;5.18;4.30;;;16.10;99.90;;;;;;4781215;29;20058;-70
2022/06/27 05:20:59;;;;;;;5.05;4.55;;;16.00;99.90;;;;;;4800719;29;20488;-70
2022/06/27 05:23:25;;;;;;;6.40;4.55;;;16.10;99.90;;;;;;4778190;29;20049;-69
2022/06/27 05:25:51;;;;;;;4.70;4.30;;;16.10;99.90;;;;;;4796617;29;20047;-70
2022/06/27 05:28:16;;;;;;;4.68;4.28;;;16.10;99.90;;;;;;4803565;29;20074;-69
2022/06/27 05:30:42;;;;;;;4.80;4.28;;;16.20;99.90;;;;;;4785324;29;20051;-69
2022/06/27 05:33:09;;;;;;;5.50;4.60;;;16.20;99.90;;;;;;4804050;29;20054;-70
2022/06/27 05:35:36;;;;;;;5.18;4.20;;;16.20;99.90;;;;;;4782483;29;20058;-70
2022/06/27 05:38:03;;;;;;;5.03;4.40;;;16.30;99.90;;;;;;4783466;29;20430;-69
2022/06/27 05:40:31;;;;;;;5.13;4.63;;;16.40;99.90;;;;;;4781692;29;20051;-69
2022/06/27 05:42:57;;;;;;;4.32;3.92;;;16.50;99.90;;;;;;4797077;29;20049;-70
2022/06/27 05:45:23;;;;;;;4.43;4.03;;;16.60;99.90;;;;;;4798299;29;20047;-69
2022/06/27 05:47:59;;;;;;;5.43;4.20;;;16.70;99.90;;;;;;4772553;29;20050;-70
2022/06/27 05:50:25;;;;;;;4.18;3.83;;;16.80;99.90;;;;;;4795625;29;20051;-70
2022/06/27 05:52:53;;;;;;;4.30;3.40;;;16.90;99.90;;;;;;4802238;29;20042;-69
2022/06/27 05:55:21;;;;;;;4.07;3.67;;;17.10;99.90;;;;;;4798327;29;20047;-69
2022/06/27 05:57:47;;;;;;;3.42;3.13;;;17.10;99.90;;;;;;4802377;29;20472;-70
2022/06/27 06:00:13;;;;;;;4.00;3.60;;;17.20;99.90;;;;;;4793987;29;20127;-71
2022/06/27 06:02:39;;;;;;;5.53;3.20;;;17.20;99.90;;;;;;4780419;29;20495;-70
2022/06/27 06:05:06;;;;;;;3.35;3.00;;;17.20;99.90;;;;;;4796893;29;20054;-70
2022/06/27 06:07:32;;;;;;;4.45;3.30;;;17.20;99.90;;;;;;4779333;29;20531;-70
2022/06/27 06:09:57;;;;;;;3.42;3.10;;;17.20;99.90;;;;;;4804393;29;20084;-70
2022/06/27 06:12:25;;;;;;;3.97;3.60;;;17.40;99.90;;;;;;4803794;29;20091;-68
2022/06/27 06:14:52;;;;;;;3.47;3.03;;;17.20;99.90;;;;;;4788260;29;20053;-70
2022/06/27 06:17:18;;;;;;;3.60;3.30;;;17.10;99.90;;;;;;4795251;29;20051;-69
2022/06/27 06:19:43;;;;;;;3.75;3.00;;;17.10;99.90;;;;;;4796815;29;20395;-69
2022/06/27 06:22:09;;;;;;;3.30;3.00;;;17.00;99.90;;;;;;4802978;29;20046;-68
2022/06/27 06:24:35;;;;;;;3.63;2.88;;;17.00;99.90;;;;;;4803534;29;20046;-69
2022/06/27 06:27:01;;;;;;;2.92;2.70;;;17.00;99.90;;;;;;4797659;29;20488;-68
2022/06/27 06:29:27;;;;;;;3.58;3.28;;;17.00;99.90;;;;;;4796965;29;20070;-69
2022/06/27 06:31:53;;;;;;;3.47;3.17;;;17.00;99.90;;;;;;4785483;29;20464;-69
2022/06/27 06:34:18;;;;;;;4.00;3.40;;;17.00;99.90;;;;;;4795088;29;20082;-70
2022/06/27 06:36:45;;;;;;;3.58;3.08;;;17.00;99.90;;;;;;4794245;29;20130;-69
2022/06/27 06:39:12;;;;;;;3.90;3.28;;;17.00;99.90;;;;;;4785080;29;20047;-68
2022/06/27 06:41:39;;;;;;;3.75;3.45;;;17.00;99.90;;;;;;4784784;29;20083;-68
2022/06/27 06:44:05;;;;;;;4.60;3.28;;;17.10;99.90;;;;;;4780436;29;20047;-70
2022/06/27 06:46:34;;;;;;;3.95;3.60;;;17.10;99.90;;;;;;4794910;29;20784;-70
2022/06/27 06:49:09;;;;;;;3.53;3.05;;;17.10;99.90;;;;;;4781132;29;20115;-68
2022/06/27 06:51:36;;;;;;;5.80;3.90;;;17.10;99.90;;;;;;4802085;29;20051;-69
2022/06/27 06:54:04;;;;;;;3.30;3.10;;;17.10;99.90;;;;;;4796125;29;20130;-71
2022/06/27 06:56:30;;;;;;;4.97;3.95;;;17.20;99.90;;;;;;4803045;29;20449;-69
2022/06/27 06:59:21;;;;;;;3.90;3.55;;;17.20;99.90;;;;;;4802517;29;20122;-70
2022/06/27 07:01:47;;;;;;;4.07;3.78;;;17.20;99.90;;;;;;4781476;30;20481;-70
2022/06/27 07:04:14;;;;;;;4.82;3.80;;;17.20;99.90;;;;;;4781096;29;20043;-68
2022/06/27 07:06:40;;;;;;;5.55;3.95;;;17.20;99.90;;;;;;4800814;29;20055;-70
2022/06/27 07:09:06;;;;;;;4.32;3.92;;;17.40;99.90;;;;;;4806519;29;20066;-68
2022/06/27 07:11:32;;;;;;;3.78;3.42;;;17.20;99.90;;;;;;4805288;29;20054;-69
2022/06/27 07:13:58;;;;;;;4.20;3.83;;;17.30;99.90;;;;;;4797743;29;20388;-69
2022/06/27 07:16:25;;;;;;;4.40;4.00;;;17.20;99.90;;;;;;4797911;29;20134;-71
2022/06/27 07:18:54;;;;;;;4.07;3.75;;;17.10;99.90;;;;;;4765868;30;20059;-70
2022/06/27 07:21:20;;;;;;;5.88;3.83;;;17.20;99.90;;;;;;4804110;29;20074;-69
2022/06/27 07:23:48;;;;;;;4.05;3.42;;;17.20;99.90;;;;;;4790197;29;20058;-68
2022/06/27 07:26:16;;;;;;;3.72;3.40;;;17.20;99.90;;;;;;4800294;29;20058;-70
2022/06/27 07:28:42;;;;;;;4.50;3.38;;;17.10;99.90;;;;;;4796203;29;20051;-69
2022/06/27 07:31:12;;;;;;;4.05;3.75;;;17.10;99.90;;;;;;4797200;29;20107;-70
2022/06/27 07:33:39;;;;;;;3.65;3.35;;;17.10;99.90;;;;;;4796727;29;20063;-71
2022/06/27 07:36:06;;;;;;;4.22;3.88;;;17.10;99.90;;;;;;4784589;29;20133;-70
2022/06/27 07:38:37;;;;;;;4.20;3.85;;;17.10;99.90;;;;;;4799315;29;20104;-71
2022/06/27 07:41:06;;;;;;;4.38;3.97;;;17.20;99.90;;;;;;4790447;29;20516;-69
2022/06/27 07:43:33;;;;;;;4.45;3.55;;;17.20;99.90;;;;;;4782187;29;20424;-70
2022/06/27 07:46:01;;;;;;;4.28;3.88;;;17.20;99.90;;;;;;4768862;29;20043;-70
2022/06/27 07:48:27;;;;;;;4.05;3.65;;;17.20;99.90;;;;;;4806282;29;20051;-70
2022/06/27 07:50:54;;;;;;;4.10;3.75;;;17.30;99.90;;;;;;4784807;29;20105;-70
2022/06/27 07:53:20;;;;;;;4.50;3.72;;;17.30;99.90;;;;;;4798973;29;20067;-70
2022/06/27 07:55:58;;;;;;;3.90;3.60;;;17.30;99.90;;;;;;4802748;29;20119;-70
2022/06/27 07:58:38;;;;;;;5.72;3.90;;;17.40;99.90;;;;;;4800704;29;20112;-68
2022/06/27 08:01:09;;;;;;;3.72;3.42;;;17.40;99.90;;;;;;4796996;29;20094;-68
2022/06/27 08:03:36;;;;;;;4.23;3.93;;;17.60;99.90;;;;;;4793400;29;20086;-68
2022/06/27 08:06:15;;;;;;;3.90;3.60;;;17.60;99.90;;;;;;4784661;29;20299;-70
2022/06/27 08:08:44;;;;;;;3.92;3.63;;;17.70;99.90;;;;;;4800126;29;20055;-70
2022/06/27 08:11:17;;;;;;;4.53;3.85;;;17.70;99.90;;;;;;4783338;29;20169;-70
2022/06/27 08:13:44;;;;;;;5.30;3.78;;;17.80;99.90;;;;;;4798742;29;20480;-69
2022/06/27 08:16:14;;;;;;;4.28;3.92;;;17.80;99.90;;;;;;4802191;29;20050;-69
2022/06/27 08:18:40;;;;;;;4.45;3.92;;;18.00;99.90;;;;;;4796527;29;20462;-70
2022/06/27 08:21:08;;;;;;;4.88;3.70;;;18.10;99.90;;;;;;4797205;29;20042;-68
2022/06/27 08:23:36;;;;;;;4.40;3.60;;;18.30;99.90;;;;;;4780503;29;20043;-69
2022/06/27 08:26:04;;;;;;;3.55;3.33;;;18.70;99.90;;;;;;4787137;29;20054;-70
2022/06/27 08:28:30;;;;;;;3.85;3.28;;;18.60;99.90;;;;;;4806936;29;20054;-69
2022/06/27 08:31:00;;;;;;;3.88;3.58;;;18.70;99.90;;;;;;4802536;29;20107;-70
2022/06/27 08:33:26;;;;;;;3.67;3.33;;;18.80;99.90;;;;;;4806091;29;20054;-69
2022/06/27 08:35:52;;;;;;;4.00;3.70;;;18.90;99.90;;;;;;4792245;29;20051;-71
2022/06/27 08:38:18;;;;;;;4.03;3.58;;;19.00;99.90;;;;;;4779400;29;20150;-68
2022/06/27 08:40:45;;;;;;;3.90;3.60;;;18.90;99.90;;;;;;4781513;29;20122;-69
2022/06/27 08:43:11;;;;;;;3.65;3.35;;;18.90;99.90;;;;;;4788752;29;20137;-68
2022/06/27 08:45:37;;;;;;;3.58;3.30;;;18.80;99.90;;;;;;4786019;29;20069;-70
2022/06/27 08:48:07;;;;;;;3.30;3.00;;;18.80;99.90;;;;;;4778149;29;20418;-70
2022/06/27 08:50:34;;;;;;;4.13;3.35;;;18.80;99.90;;;;;;4807289;29;20057;-69
2022/06/27 08:53:01;;;;;;;3.63;3.33;;;18.90;99.90;;;;;;4799740;29;20099;-69
2022/06/27 08:55:27;;;;;;;3.95;3.33;;;18.90;99.90;;;;;;4781232;29;20170;-69
2022/06/27 08:57:52;;;;;;;4.68;3.50;;;19.00;99.90;;;;;;4774568;29;20384;-68
2022/06/27 09:00:18;;;;;;;3.60;3.30;;;19.10;99.90;;;;;;4790481;29;20117;-71
2022/06/27 09:02:44;;;;;;;3.63;3.33;;;19.10;99.90;;;;;;4789390;29;20105;-69
2022/06/27 09:05:21;;;;;;;3.42;3.13;;;19.20;99.90;;;;;;4789738;29;20054;-69
2022/06/27 09:07:53;;;;;;;2.80;2.60;;;19.40;99.90;;;;;;4790590;29;20077;-70
2022/06/27 09:10:30;;;;;;;3.00;2.80;;;19.50;99.90;;;;;;4780847;29;20474;-71
2022/06/27 09:13:16;;;;;;;3.05;2.75;;;19.60;99.90;;;;;;4774922;29;20126;-68
2022/06/27 09:15:52;;;;;;;3.70;2.50;;;19.60;99.90;;;;;;4797620;29;20071;-69
2022/06/27 09:18:31;;;;;;;3.20;2.75;;;19.60;99.90;;;;;;4805661;29;20111;-69
2022/06/27 09:21:03;;;;;;;2.70;2.50;;;19.50;99.90;;;;;;4773931;29;20047;-71
2022/06/27 09:23:50;;;;;;;3.10;2.80;;;19.50;99.90;;;;;;4789867;29;20107;-70
2022/06/27 09:26:34;;;;;;;4.47;3.03;;;19.40;99.90;;;;;;4790063;29;20060;-70
2022/06/27 09:29:15;;;;;;;2.33;2.10;;;19.40;99.90;;;;;;4805375;29;20062;-68
2022/06/27 09:31:42;;;;;;;1.58;1.48;;;19.40;99.90;;;;;;4803796;29;20055;-70
2022/06/27 09:34:21;;;;;;;3.70;2.50;;;19.20;99.90;;;;;;4786126;29;20130;-69
2022/06/27 09:36:56;;;;;;;2.47;2.20;;;19.20;99.90;;;;;;4788311;29;20128;-68
2022/06/27 09:39:31;;;;;;;2.65;2.45;;;19.10;99.90;;;;;;4788296;29;20086;-68
2022/06/27 09:42:03;;;;;;;2.95;2.30;;;19.10;99.90;;;;;;4788070;29;20055;-70
2022/06/27 09:44:38;;;;;;;2.60;2.40;;;19.00;99.90;;;;;;4786341;29;20108;-69
2022/06/27 09:47:16;;;;;;;3.55;3.03;;;19.10;99.90;;;;;;4786320;29;20039;-70
2022/06/27 09:49:49;;;;;;;2.88;2.67;;;19.10;99.90;;;;;;4771831;30;20091;-70
2022/06/27 09:52:17;;;;;;;3.10;2.33;;;19.10;99.90;;;;;;4784532;29;20051;-69
2022/06/27 09:54:45;;;;;;;4.75;2.50;;;19.10;99.90;;;;;;4778598;29;20094;-69
2022/06/27 09:57:12;;;;;;;2.95;2.33;;;19.10;99.90;;;;;;4777048;29;20108;-68
2022/06/27 09:59:39;;;;;;;2.45;2.25;;;19.10;99.90;;;;;;4764223;30;20080;-69
2022/06/27 10:02:06;;;;;;;2.90;2.58;;;19.20;99.90;;;;;;4777773;29;20089;-69
2022/06/27 10:04:32;;;;;;;3.17;2.65;;;19.20;99.90;;;;;;4780914;29;20056;-69
2022/06/27 10:07:01;;;;;;;2.67;2.47;;;19.20;99.90;;;;;;4788003;29;20055;-68
2022/06/27 10:09:29;;;;;;;3.00;2.70;;;19.30;99.90;;;;;;4787914;29;20047;-69
2022/06/27 10:12:22;;;;;;;3.10;2.75;;;19.40;99.90;;;;;;4783105;29;20075;-70
2022/06/27 10:15:09;;;;;;;2.75;2.55;;;19.40;99.90;;;;;;4779872;30;20461;-68
2022/06/27 10:17:43;;;;;;;3.65;3.10;;;19.50;99.90;;;;;;4781482;30;20112;-70
2022/06/27 10:20:21;;;;;;;2.97;2.72;;;19.50;99.90;;;;;;4777981;30;20052;-69
2022/06/27 10:23:03;;;;;;;2.65;2.35;;;19.50;99.90;;;;;;4774467;29;20059;-69
2022/06/27 10:25:28;;;;;;;2.97;2.53;;;19.50;99.90;;;;;;4776785;30;20485;-68
2022/06/27 10:30:55;;;;;;;2.63;2.30;;;19.50;99.90;;;;;;4801495;29;20063;-68
2022/06/27 10:33:21;;;;;;;2.92;2.00;;;19.50;99.90;;;;;;4791770;29;20054;-68
2022/06/27 10:35:57;;;;;;;3.20;2.90;;;19.50;99.90;;;;;;4807768;29;20058;-69
2022/06/27 10:38:35;;;;;;;2.83;2.60;;;19.50;99.90;;;;;;4809164;29;20092;-69
2022/06/27 10:41:31;;;;;;;3.13;2.88;;;19.60;99.90;;;;;;4802836;29;20138;-68
2022/06/27 10:43:59;;;;;;;3.30;3.00;;;19.50;99.90;;;;;;4790934;29;20055;-68
2022/06/27 10:46:24;;;;;;;3.10;2.80;;;19.50;99.90;;;;;;4799510;29;20038;-68
2022/06/27 10:48:56;;;;;;;2.63;2.42;;;19.60;99.90;;;;;;4807671;29;20505;-68
2022/06/27 10:51:29;;;;;;;5.90;2.90;;;19.60;99.90;;;;;;4807574;29;20058;-69
2022/06/27 10:54:03;;;;;;;;;;;19.70;99.90;;;;;;4790526;29;20066;-70
2022/06/27 10:56:29;;;;;;;2.90;2.60;;;19.70;99.90;;;;;;4800004;29;19922;-69
2022/06/27 10:58:59;;;;;;;3.03;2.83;;;19.70;99.90;;;;;;4794506;29;20043;-70
2022/06/27 11:01:25;;;;;;;3.10;2.90;;;19.60;99.90;;;;;;4781625;29;20097;-69
2022/06/27 11:03:51;;;;;;;3.30;2.50;;;19.70;99.90;;;;;;4805579;29;20086;-68
2022/06/27 11:06:17;;;;;;;3.17;2.50;;;19.60;99.90;;;;;;4808511;29;20055;-66
2022/06/27 11:08:46;;;;;;;4.10;2.80;;;19.70;99.90;;;;;;4806031;29;20346;-69
2022/06/27 11:11:20;;;;;;;3.58;2.50;;;19.70;99.90;;;;;;4776764;29;20063;-68
2022/06/27 11:13:48;;;;;;;2.78;2.58;;;19.70;99.90;;;;;;4790909;30;20055;-67
2022/06/27 11:16:22;;;;;;;3.22;2.25;;;19.80;99.90;;;;;;4774092;29;20056;-70
2022/06/27 11:18:54;;;;;;;2.67;2.47;;;19.80;99.90;;;;;;4774222;30;20055;-69
2022/06/27 11:21:21;;;;;;;3.35;2.65;;;19.90;99.90;;;;;;4791882;29;20038;-70
2022/06/27 11:24:11;;;;;;;2.53;2.33;;;19.80;99.90;;;;;;4799517;29;20043;-69
2022/06/27 11:26:45;;;;;;;4.10;2.95;;;19.80;99.90;;;;;;4807315;29;20338;-69
2022/06/27 11:32:06;;;;;;;3.63;2.83;;;19.70;99.90;;;;;;4807664;29;20058;-68
2022/06/27 11:34:34;;;;;;;2.58;2.38;;;19.60;99.90;;;;;;4806931;29;20090;-68
2022/06/27 11:37:03;;;;;;;2.58;2.38;;;19.60;99.90;;;;;;4791821;29;20070;-66
2022/06/27 11:39:31;;;;;;;3.28;2.53;;;19.60;99.90;;;;;;4803098;29;20523;-69
2022/06/27 11:41:59;;;;;;;2.60;2.40;;;19.60;99.90;;;;;;4806979;29;20393;-72
2022/06/27 11:44:26;;;;;;;4.00;2.70;;;19.60;99.90;;;;;;4791897;29;20085;-67
2022/06/27 11:47:02;;;;;;;3.70;2.90;;;19.70;99.90;;;;;;4789464;29;20125;-71
2022/06/27 11:49:30;;;;;;;2.80;2.60;;;19.60;99.90;;;;;;4789652;29;20495;-70
2022/06/27 11:52:13;;;;;;;2.90;2.70;;;19.60;99.90;;;;;;4773307;29;20051;-65
2022/06/27 11:54:49;;;;;;;3.60;2.75;;;19.60;99.90;;;;;;4773598;30;20489;-70
2022/06/27 11:57:26;;;;;;;3.13;2.92;;;19.60;99.90;;;;;;4788847;29;20063;-74
2022/06/27 11:59:54;;;;;;;2.78;2.50;;;19.60;99.90;;;;;;4773337;29;20044;-68
2022/06/27 12:02:37;;;;;;;4.75;3.20;;;19.50;99.90;;;;;;4789389;29;20051;-73
2022/06/27 12:05:10;;;;;;;3.00;2.70;;;19.50;99.90;;;;;;4797751;29;20047;-69
2022/06/27 12:08:07;;;;;;;3.30;2.60;;;19.50;99.90;;;;;;4778542;29;20099;-68
2022/06/27 12:10:38;;;;;;;2.65;2.45;;;19.50;99.90;;;;;;4773821;30;20055;-69
2022/06/27 12:13:10;;;;;;;3.00;2.80;;;19.50;99.90;;;;;;4789224;29;20124;-68
2022/06/27 12:15:36;;;;;;;3.07;2.77;;;19.70;99.90;;;;;;4775841;29;20087;-68
2022/06/27 12:18:03;;;;;;;4.38;2.90;;;19.80;99.90;;;;;;4788951;29;20285;-69
2022/06/27 12:20:31;;;;;;;3.30;3.00;;;19.90;99.90;;;;;;4789305;29;20069;-66
2022/06/27 12:22:57;;;;;;;3.20;2.90;;;19.90;99.90;;;;;;4782126;29;20054;-68
2022/06/27 12:25:23;;;;;;;3.33;3.05;;;20.00;99.90;;;;;;4781153;29;20477;-68
2022/06/27 12:27:49;;;;;;;3.20;2.80;;;20.10;99.90;;;;;;4792364;29;20456;-67
2022/06/27 12:30:15;;;;;;;4.07;3.25;;;20.10;99.90;;;;;;4782159;29;20061;-67
2022/06/27 12:32:42;;;;;;;4.00;3.40;;;20.10;99.90;;;;;;4797614;29;20371;-68
2022/06/27 12:35:08;;;;;;;4.03;3.72;;;20.00;99.90;;;;;;4799526;29;20199;-69
2022/06/27 12:37:35;;;;;;;4.25;3.85;;;20.00;99.90;;;;;;4796964;29;20114;-69
2022/06/27 12:40:02;;;;;;;3.97;3.55;;;20.00;99.90;;;;;;4782189;29;20058;-68
2022/06/27 12:42:28;;;;;;;4.68;4.00;;;20.00;99.90;;;;;;4797153;29;20082;-66
2022/06/27 12:44:53;;;;;;;4.85;4.00;;;20.00;99.90;;;;;;4779340;29;20132;-68
2022/06/27 12:47:20;;;;;;;4.10;3.80;;;19.70;99.90;;;;;;4797261;29;20126;-67
2022/06/27 12:49:45;;;;;;;8.43;4.38;;;19.90;99.90;;;;;;4782294;29;20483;-69
2022/06/27 12:52:11;;;;;;;4.82;4.05;;;19.90;99.90;;;;;;4807115;29;20126;-69
2022/06/27 12:54:36;;;;;;;4.63;4.22;;;19.80;99.90;;;;;;4790625;29;20051;-67
2022/06/27 12:57:04;;;;;;;4.50;4.10;;;19.80;99.90;;;;;;4806954;29;20063;-68
2022/06/27 12:59:29;;;;;;;4.40;4.00;;;19.80;99.90;;;;;;4807071;29;20146;-70
2022/06/27 13:01:55;;;;;;;4.90;4.50;;;19.80;99.90;;;;;;4790032;29;20055;-68
2022/06/27 13:04:21;;;;;;;5.10;4.60;;;19.90;99.90;;;;;;4783646;29;20074;-70